Wetterdaten: Woche 10.10.11 - 16.10.11 (KW41)
Datum Zeit Temp. Innen Temp. Aussen UV X Diff Temp. Feuchte Inne Feuchte Auss Sonnenschein Luftdruck Regen ab 0,1 Wind Sonnenschein T Regendauer Windben
10.10.2011 00:00 18,5 C 14,5 C 0,0 UV-I 0,0 C 65 % 94 % 0 % 1014,5 hPa 0,2 l/m 5,3 km/h (1 Bft) 0,00 h 0,67 h 7,7 km/h (2 Bft)
10.10.2011 01:00 18,6 C 15,2 C 0,0 UV-I 0,0 C 66 % 94 % 0 % 1014,4 hPa 0,1 l/m 4,2 km/h (1 Bft) 0,00 h 0,27 h 4,5 km/h (1 Bft)
10.10.2011 02:00 18,7 C 15,7 C 0,0 UV-I 0,0 C 67 % 94 % 0 % 1014,4 hPa 0,1 l/m 3,6 km/h (1 Bft) 0,00 h 0,40 h 4,6 km/h (1 Bft)
10.10.2011 03:00 18,8 C 16,0 C 0,0 UV-I 0,0 C 67 % 94 % 0 % 1014,5 hPa 0,0 l/m 4,5 km/h (1 Bft) 0,00 h 0,07 h 6,1 km/h (2 Bft)
10.10.2011 04:00 18,9 C 16,0 C 0,0 UV-I 0,0 C 67 % 94 % 0 % 1014,3 hPa 0,2 l/m 5,0 km/h (1 Bft) 0,00 h 0,63 h 5,2 km/h (1 Bft)
10.10.2011 05:00 19,0 C 16,1 C 0,0 UV-I 0,0 C 68 % 94 % 0 % 1014,1 hPa 0,1 l/m 5,3 km/h (1 Bft) 0,00 h 0,00 h 5,9 km/h (2 Bft)
10.10.2011 06:00 19,1 C 16,3 C 0,0 UV-I 0,0 C 68 % 94 % 0 % 1014,1 hPa 0,0 l/m 5,4 km/h (1 Bft) 0,00 h 0,00 h 6,7 km/h (2 Bft)
10.10.2011 07:00 19,2 C 16,4 C 0,0 UV-I 0,0 C 68 % 93 % 0 % 1013,8 hPa 0,0 l/m 7,2 km/h (2 Bft) 0,00 h 0,00 h 7,2 km/h (2 Bft)
10.10.2011 08:00 19,3 C 16,5 C 0,0 UV-I 0,0 C 68 % 92 % 0 % 1014,1 hPa 0,0 l/m 7,3 km/h (2 Bft) 0,00 h 0,00 h 8,3 km/h (2 Bft)
10.10.2011 09:00 19,6 C 16,7 C 0,0 UV-I 0,0 C 68 % 91 % 1 % 1014,4 hPa 0,0 l/m 8,1 km/h (2 Bft) 0,00 h 0,00 h 9,7 km/h (2 Bft)
10.10.2011 10:00 19,9 C 17,1 C 0,0 UV-I 0,1 C 68 % 89 % 3 % 1014,8 hPa 0,0 l/m 8,7 km/h (2 Bft) 0,00 h 0,00 h 9,0 km/h (2 Bft)
10.10.2011 11:00 20,1 C 17,4 C 0,3 UV-I 0,8 C 67 % 86 % 22 % 1015,1 hPa 0,0 l/m 8,8 km/h (2 Bft) 0,00 h 0,00 h 11,1 km/h (2 Bft)
10.10.2011 12:00 20,4 C 18,4 C 1,5 UV-I 2,5 C 66 % 81 % 72 % 1015,0 hPa 0,0 l/m 11,3 km/h (2 Bft) 0,23 h 0,00 h 13,8 km/h (3 Bft)
10.10.2011 13:00 21,1 C 19,4 C 2,7 UV-I 3,7 C 64 % 76 % 97 % 1015,0 hPa 0,0 l/m 11,0 km/h (2 Bft) 0,90 h 0,00 h 12,2 km/h (3 Bft)
10.10.2011 14:00 21,6 C 19,8 C 1,2 UV-I 2,2 C 62 % 73 % 62 % 1015,0 hPa 0,0 l/m 10,6 km/h (2 Bft) 0,10 h 0,00 h 11,0 km/h (2 Bft)
10.10.2011 15:00 21,6 C 19,5 C 0,6 UV-I 1,1 C 62 % 74 % 32 % 1014,9 hPa 0,0 l/m 9,7 km/h (2 Bft) 0,00 h 0,03 h 11,4 km/h (2 Bft)
10.10.2011 16:00 21,8 C 19,6 C 0,5 UV-I 1,4 C 61 % 73 % 39 % 1014,9 hPa 0,0 l/m 10,2 km/h (2 Bft) 0,00 h 0,00 h 10,1 km/h (2 Bft)
10.10.2011 17:00 21,8 C 19,1 C 0,1 UV-I 0,3 C 61 % 76 % 10 % 1014,9 hPa 0,0 l/m 10,1 km/h (2 Bft) 0,00 h 0,00 h 10,6 km/h (2 Bft)
10.10.2011 18:00 21,6 C 18,5 C 0,0 UV-I 0,0 C 61 % 78 % 0 % 1015,1 hPa 0,0 l/m 9,1 km/h (2 Bft) 0,00 h 0,00 h 9,9 km/h (2 Bft)
10.10.2011 19:00 21,2 C 18,0 C 0,0 UV-I 0,0 C 62 % 79 % 0 % 1015,7 hPa 0,0 l/m 10,9 km/h (2 Bft) 0,00 h 0,00 h 12,2 km/h (2 Bft)
10.10.2011 20:00 21,0 C 17,6 C 0,0 UV-I 0,0 C 63 % 80 % 0 % 1016,2 hPa 0,0 l/m 10,6 km/h (2 Bft) 0,00 h 0,00 h 13,2 km/h (3 Bft)
10.10.2011 21:00 20,8 C 17,2 C 0,0 UV-I 0,0 C 63 % 80 % 0 % 1016,2 hPa 0,0 l/m 10,0 km/h (2 Bft) 0,00 h 0,07 h 11,7 km/h (2 Bft)
10.10.2011 22:00 20,8 C 16,8 C 0,0 UV-I 0,0 C 63 % 81 % 0 % 1016,3 hPa 0,0 l/m 8,8 km/h (2 Bft) 0,00 h 0,23 h 9,1 km/h (2 Bft)
10.10.2011 23:00 20,8 C 16,6 C 0,0 UV-I 0,0 C 63 % 82 % 0 % 1016,6 hPa 0,0 l/m 9,1 km/h (2 Bft) 0,00 h 0,07 h 10,6 km/h (2 Bft)
11.10.2011 00:00 20,7 C 16,6 C 0,0 UV-I 0,0 C 63 % 82 % 0 % 1016,7 hPa 0,0 l/m 9,6 km/h (2 Bft) 0,00 h 0,00 h 13,3 km/h (3 Bft)
11.10.2011 01:00 20,6 C 16,3 C 0,0 UV-I 0,0 C 63 % 85 % 0 % 1016,6 hPa 0,0 l/m 9,6 km/h (2 Bft) 0,00 h 0,17 h 9,7 km/h (2 Bft)
11.10.2011 02:00 20,5 C 15,7 C 0,0 UV-I 0,0 C 64 % 89 % 0 % 1016,9 hPa 0,0 l/m 8,5 km/h (2 Bft) 0,00 h 0,23 h 9,9 km/h (2 Bft)
11.10.2011 03:00 20,5 C 15,4 C 0,0 UV-I 0,0 C 65 % 91 % 0 % 1016,4 hPa 0,0 l/m 10,1 km/h (2 Bft) 0,00 h 0,37 h 11,2 km/h (2 Bft)
11.10.2011 04:00 20,4 C 15,3 C 0,0 UV-I 0,0 C 65 % 91 % 0 % 1015,9 hPa 0,1 l/m 10,0 km/h (2 Bft) 0,00 h 0,00 h 12,0 km/h (2 Bft)
11.10.2011 05:00 20,4 C 15,6 C 0,0 UV-I 0,0 C 65 % 88 % 0 % 1015,6 hPa 0,0 l/m 10,6 km/h (2 Bft) 0,00 h 0,00 h 13,2 km/h (3 Bft)
11.10.2011 06:00 20,3 C 15,8 C 0,0 UV-I 0,0 C 64 % 83 % 0 % 1015,8 hPa 0,0 l/m 11,5 km/h (2 Bft) 0,00 h 0,00 h 11,9 km/h (2 Bft)
11.10.2011 07:00 20,3 C 15,7 C 0,0 UV-I 0,0 C 64 % 84 % 0 % 1016,2 hPa 0,0 l/m 10,2 km/h (2 Bft) 0,00 h 0,27 h 12,0 km/h (2 Bft)
11.10.2011 08:00 20,3 C 14,8 C 0,0 UV-I 0,0 C 64 % 89 % 0 % 1016,6 hPa 0,1 l/m 9,0 km/h (2 Bft) 0,00 h 0,37 h 10,1 km/h (2 Bft)
11.10.2011 09:00 20,2 C 14,8 C 0,0 UV-I 0,0 C 64 % 90 % 0 % 1016,7 hPa 0,0 l/m 9,1 km/h (2 Bft) 0,00 h 0,00 h 9,4 km/h (2 Bft)
11.10.2011 10:00 20,2 C 15,3 C 0,0 UV-I 0,0 C 65 % 89 % 1 % 1016,8 hPa 0,0 l/m 10,5 km/h (2 Bft) 0,00 h 0,00 h 10,9 km/h (2 Bft)
11.10.2011 11:00 20,4 C 16,0 C 0,1 UV-I 0,5 C 64 % 86 % 14 % 1016,7 hPa 0,0 l/m 11,4 km/h (2 Bft) 0,00 h 0,00 h 13,6 km/h (3 Bft)
11.10.2011 12:00 20,5 C 16,2 C 0,0 UV-I 0,1 C 64 % 85 % 2 % 1016,8 hPa 0,0 l/m 8,8 km/h (2 Bft) 0,00 h 0,03 h 8,9 km/h (2 Bft)
11.10.2011 13:00 20,6 C 16,6 C 0,1 UV-I 0,4 C 64 % 84 % 11 % 1016,5 hPa 0,0 l/m 8,9 km/h (2 Bft) 0,00 h 0,00 h 10,2 km/h (2 Bft)
11.10.2011 14:00 20,7 C 16,6 C 0,0 UV-I 0,1 C 64 % 84 % 3 % 1016,1 hPa 0,0 l/m 8,7 km/h (2 Bft) 0,00 h 0,07 h 9,6 km/h (2 Bft)
11.10.2011 15:00 20,6 C 16,4 C 0,0 UV-I 0,0 C 64 % 85 % 0 % 1016,0 hPa 0,0 l/m 7,7 km/h (2 Bft) 0,00 h 0,27 h 8,5 km/h (2 Bft)
11.10.2011 16:00 20,6 C 15,7 C 0,0 UV-I 0,0 C 65 % 89 % 0 % 1015,9 hPa 0,1 l/m 5,6 km/h (1 Bft) 0,00 h 0,57 h 6,4 km/h (2 Bft)
11.10.2011 17:00 20,6 C 15,3 C 0,0 UV-I 0,0 C 65 % 92 % 0 % 1016,2 hPa 0,4 l/m 5,5 km/h (1 Bft) 0,00 h 0,47 h 5,6 km/h (1 Bft)
11.10.2011 18:00 20,5 C 15,3 C 0,0 UV-I 0,0 C 65 % 92 % 0 % 1016,1 hPa 0,4 l/m 4,9 km/h (1 Bft) 0,00 h 0,73 h 5,6 km/h (1 Bft)
11.10.2011 19:00 20,4 C 15,3 C 0,0 UV-I 0,0 C 66 % 92 % 0 % 1016,6 hPa 0,1 l/m 6,3 km/h (2 Bft) 0,00 h 0,07 h 6,7 km/h (2 Bft)
11.10.2011 20:00 20,4 C 15,4 C 0,0 UV-I 0,0 C 66 % 91 % 0 % 1016,9 hPa 0,0 l/m 7,2 km/h (2 Bft) 0,00 h 0,13 h 7,6 km/h (2 Bft)
11.10.2011 21:00 20,3 C 15,3 C 0,0 UV-I 0,0 C 66 % 90 % 0 % 1017,0 hPa 0,0 l/m 7,2 km/h (2 Bft) 0,00 h 0,23 h 8,4 km/h (2 Bft)
11.10.2011 22:00 20,2 C 15,3 C 0,0 UV-I 0,0 C 65 % 90 % 0 % 1017,2 hPa 0,0 l/m 9,3 km/h (2 Bft) 0,00 h 0,23 h 9,1 km/h (2 Bft)
11.10.2011 23:00 20,3 C 15,2 C 0,0 UV-I 0,0 C 66 % 90 % 0 % 1017,3 hPa 0,1 l/m 7,4 km/h (2 Bft) 0,00 h 0,63 h 8,5 km/h (2 Bft)
12.10.2011 00:00 20,2 C 15,0 C 0,0 UV-I 0,0 C 66 % 91 % 0 % 1017,8 hPa 1,2 l/m 3,3 km/h (1 Bft) 0,00 h 0,73 h 3,5 km/h (1 Bft)
12.10.2011 01:00 20,2 C 14,3 C 0,0 UV-I 0,0 C 66 % 92 % 0 % 1018,0 hPa 2,0 l/m 1,7 km/h (1 Bft) 0,00 h 1,00 h 1,7 km/h (1 Bft)
12.10.2011 02:00 20,1 C 13,4 C 0,0 UV-I 0,0 C 66 % 92 % 0 % 1017,7 hPa 0,6 l/m 0,0 km/h (0 Bft) 0,00 h 1,00 h 0,0 km/h (0 Bft)
12.10.2011 03:00 20,0 C 13,3 C 0,0 UV-I 0,0 C 66 % 93 % 0 % 1017,5 hPa 0,2 l/m 0,1 km/h (0 Bft) 0,00 h 0,60 h 0,3 km/h (0 Bft)
12.10.2011 04:00 20,0 C 13,4 C 0,0 UV-I 0,0 C 67 % 94 % 0 % 1016,9 hPa 0,0 l/m 1,1 km/h (1 Bft) 0,00 h 0,00 h 1,6 km/h (1 Bft)
12.10.2011 05:00 20,0 C 13,9 C 0,0 UV-I 0,0 C 67 % 94 % 0 % 1016,8 hPa 0,1 l/m 1,6 km/h (1 Bft) 0,00 h 0,23 h 1,5 km/h (1 Bft)
12.10.2011 06:00 20,1 C 14,1 C 0,0 UV-I 0,0 C 67 % 94 % 0 % 1016,8 hPa 2,1 l/m 2,7 km/h (1 Bft) 0,00 h 1,00 h 3,1 km/h (1 Bft)
12.10.2011 07:00 20,0 C 13,5 C 0,0 UV-I 0,0 C 67 % 94 % 0 % 1017,0 hPa 1,7 l/m 2,1 km/h (1 Bft) 0,00 h 0,90 h 2,0 km/h (1 Bft)
12.10.2011 08:00 19,9 C 12,5 C 0,0 UV-I 0,0 C 67 % 93 % 0 % 1017,2 hPa 0,4 l/m 2,9 km/h (1 Bft) 0,00 h 0,97 h 4,2 km/h (1 Bft)
12.10.2011 09:00 19,8 C 11,6 C 0,0 UV-I 0,0 C 67 % 94 % 0 % 1017,9 hPa 1,1 l/m 1,9 km/h (1 Bft) 0,00 h 1,00 h 1,9 km/h (1 Bft)
12.10.2011 10:00 19,7 C 11,5 C 0,0 UV-I 0,0 C 67 % 94 % 0 % 1018,6 hPa 1,2 l/m 1,2 km/h (1 Bft) 0,00 h 1,00 h 1,8 km/h (1 Bft)
12.10.2011 11:00 19,8 C 11,3 C 0,0 UV-I 0,0 C 66 % 94 % 0 % 1018,8 hPa 1,1 l/m 2,0 km/h (1 Bft) 0,00 h 1,00 h 2,7 km/h (1 Bft)
12.10.2011 12:00 19,8 C 11,4 C 0,0 UV-I 0,2 C 66 % 94 % 6 % 1018,9 hPa 0,9 l/m 0,2 km/h (0 Bft) 0,00 h 1,00 h 0,5 km/h (0 Bft)
12.10.2011 13:00 19,8 C 11,6 C 0,0 UV-I 0,1 C 66 % 94 % 3 % 1018,8 hPa 1,2 l/m 0,2 km/h (0 Bft) 0,00 h 1,00 h 0,1 km/h (0 Bft)
12.10.2011 14:00 19,8 C 11,9 C 0,0 UV-I 0,1 C 66 % 94 % 4 % 1018,6 hPa 1,7 l/m 0,3 km/h (0 Bft) 0,00 h 1,00 h 0,3 km/h (0 Bft)
12.10.2011 15:00 19,8 C 12,0 C 0,0 UV-I 0,1 C 66 % 94 % 2 % 1018,5 hPa 0,9 l/m 0,5 km/h (0 Bft) 0,00 h 1,00 h 0,7 km/h (0 Bft)
12.10.2011 16:00 19,8 C 12,0 C 0,0 UV-I 0,0 C 65 % 94 % 0 % 1018,4 hPa 1,6 l/m 0,4 km/h (0 Bft) 0,00 h 1,00 h 0,6 km/h (0 Bft)
12.10.2011 17:00 19,8 C 11,8 C 0,0 UV-I 0,0 C 65 % 94 % 0 % 1018,6 hPa 1,5 l/m 0,2 km/h (0 Bft) 0,00 h 1,00 h 0,7 km/h (0 Bft)
12.10.2011 18:00 19,7 C 11,6 C 0,0 UV-I 0,0 C 65 % 94 % 0 % 1018,9 hPa 1,1 l/m 0,2 km/h (0 Bft) 0,00 h 1,00 h 0,2 km/h (0 Bft)
12.10.2011 19:00 19,6 C 11,7 C 0,0 UV-I 0,0 C 66 % 94 % 0 % 1019,5 hPa 2,5 l/m 0,0 km/h (0 Bft) 0,00 h 1,00 h 0,0 km/h (0 Bft)
12.10.2011 20:00 19,6 C 11,6 C 0,0 UV-I 0,0 C 66 % 94 % 0 % 1020,1 hPa 1,2 l/m 0,8 km/h (0 Bft) 0,00 h 1,00 h 1,7 km/h (1 Bft)
12.10.2011 21:00 19,5 C 11,0 C 0,0 UV-I 0,0 C 66 % 94 % 0 % 1020,8 hPa 0,1 l/m 1,9 km/h (1 Bft) 0,00 h 0,93 h 4,0 km/h (1 Bft)
12.10.2011 22:00 19,4 C 10,2 C 0,0 UV-I 0,0 C 65 % 94 % 0 % 1021,4 hPa 0,0 l/m 0,7 km/h (0 Bft) 0,00 h 1,00 h 1,8 km/h (1 Bft)
12.10.2011 23:00 19,4 C 10,1 C 0,0 UV-I 0,0 C 65 % 95 % 0 % 1021,9 hPa 0,0 l/m 0,0 km/h (0 Bft) 0,00 h 1,00 h 0,2 km/h (0 Bft)
13.10.2011 00:00 19,2 C 10,3 C 0,0 UV-I 0,0 C 64 % 95 % 0 % 1022,3 hPa 0,0 l/m 0,2 km/h (0 Bft) 0,00 h 0,57 h 0,8 km/h (0 Bft)
13.10.2011 01:00 19,2 C 10,2 C 0,0 UV-I 0,0 C 64 % 95 % 0 % 1023,0 hPa 0,0 l/m 0,4 km/h (0 Bft) 0,00 h 0,00 h 0,9 km/h (0 Bft)
13.10.2011 02:00 19,2 C 10,1 C 0,0 UV-I 0,0 C 64 % 95 % 0 % 1023,3 hPa 0,0 l/m 0,3 km/h (0 Bft) 0,00 h 0,00 h 0,8 km/h (0 Bft)
13.10.2011 03:00 19,1 C 10,1 C 0,0 UV-I 0,0 C 64 % 95 % 0 % 1023,6 hPa 0,0 l/m 0,2 km/h (0 Bft) 0,00 h 0,00 h 1,2 km/h (1 Bft)
13.10.2011 04:00 19,1 C 10,1 C 0,0 UV-I 0,0 C 64 % 95 % 0 % 1024,1 hPa 0,0 l/m 0,1 km/h (0 Bft) 0,00 h 0,00 h 0,2 km/h (0 Bft)
13.10.2011 05:00 19,0 C 9,7 C 0,0 UV-I 0,0 C 64 % 95 % 0 % 1024,5 hPa 0,0 l/m 0,0 km/h (0 Bft) 0,00 h 0,00 h 0,0 km/h (0 Bft)
13.10.2011 06:00 18,9 C 9,0 C 0,0 UV-I 0,0 C 63 % 94 % 0 % 1025,2 hPa 0,0 l/m 0,0 km/h (0 Bft) 0,00 h 0,00 h 0,0 km/h (0 Bft)
13.10.2011 07:00 18,8 C 8,1 C 0,0 UV-I 0,0 C 63 % 94 % 0 % 1025,8 hPa 0,0 l/m 0,0 km/h (0 Bft) 0,00 h 0,00 h 0,0 km/h (0 Bft)
13.10.2011 08:00 18,6 C 7,5 C 0,0 UV-I 0,0 C 62 % 94 % 0 % 1026,3 hPa 0,1 l/m 0,0 km/h (0 Bft) 0,00 h 0,00 h 0,0 km/h (0 Bft)
13.10.2011 09:00 18,6 C 8,4 C 0,0 UV-I 3,3 C 61 % 95 % 66 % 1027,3 hPa 0,0 l/m 0,1 km/h (0 Bft) 0,60 h 0,30 h 0,0 km/h (0 Bft)
13.10.2011 10:00 18,6 C 10,3 C 0,4 UV-I 8,6 C 61 % 95 % 100 % 1028,2 hPa 0,0 l/m 0,4 km/h (0 Bft) 1,00 h 0,00 h 1,0 km/h (0 Bft)
13.10.2011 11:00 18,8 C 12,5 C 0,7 UV-I 8,5 C 62 % 91 % 100 % 1028,8 hPa 0,0 l/m 2,1 km/h (1 Bft) 1,00 h 0,00 h 3,2 km/h (1 Bft)
13.10.2011 12:00 19,1 C 13,0 C 0,8 UV-I 4,1 C 62 % 87 % 75 % 1029,2 hPa 0,0 l/m 6,8 km/h (2 Bft) 0,47 h 0,00 h 7,5 km/h (2 Bft)
13.10.2011 13:00 19,5 C 13,1 C 1,4 UV-I 2,6 C 61 % 83 % 73 % 1029,6 hPa 0,0 l/m 6,5 km/h (2 Bft) 0,30 h 0,00 h 5,8 km/h (2 Bft)
13.10.2011 14:00 20,2 C 13,6 C 1,3 UV-I 2,3 C 59 % 69 % 62 % 1029,8 hPa 0,0 l/m 4,2 km/h (1 Bft) 0,20 h 0,00 h 4,5 km/h (1 Bft)
13.10.2011 15:00 21,7 C 15,4 C 2,8 UV-I 5,6 C 56 % 59 % 100 % 1030,3 hPa 0,0 l/m 4,1 km/h (1 Bft) 1,00 h 0,00 h 5,3 km/h (1 Bft)
13.10.2011 16:00 23,0 C 15,7 C 1,3 UV-I 4,9 C 51 % 54 % 100 % 1030,6 hPa 0,0 l/m 3,7 km/h (1 Bft) 1,00 h 0,00 h 4,3 km/h (1 Bft)
13.10.2011 17:00 23,1 C 14,2 C 0,2 UV-I 1,8 C 50 % 58 % 44 % 1030,8 hPa 0,0 l/m 1,6 km/h (1 Bft) 0,43 h 0,00 h 2,5 km/h (1 Bft)
13.10.2011 18:00 22,4 C 12,3 C 0,0 UV-I 0,0 C 51 % 65 % 0 % 1030,8 hPa 0,0 l/m 0,1 km/h (0 Bft) 0,00 h 0,00 h 0,1 km/h (0 Bft)
13.10.2011 19:00 21,3 C 10,5 C 0,0 UV-I 0,0 C 53 % 72 % 0 % 1030,9 hPa 0,0 l/m 0,2 km/h (0 Bft) 0,00 h 0,00 h 0,1 km/h (0 Bft)
13.10.2011 20:00 20,3 C 9,6 C 0,0 UV-I 0,0 C 54 % 77 % 0 % 1031,2 hPa 0,0 l/m 0,0 km/h (0 Bft) 0,00 h 0,00 h 0,0 km/h (0 Bft)
13.10.2011 21:00 19,8 C 8,3 C 0,0 UV-I 0,0 C 55 % 80 % 0 % 1031,2 hPa 0,0 l/m 0,0 km/h (0 Bft) 0,00 h 0,00 h 0,0 km/h (0 Bft)
13.10.2011 22:00 19,4 C 7,0 C 0,0 UV-I 0,0 C 55 % 84 % 0 % 1031,6 hPa 0,0 l/m 0,0 km/h (0 Bft) 0,00 h 0,07 h 0,0 km/h (0 Bft)
13.10.2011 23:00 19,0 C 6,3 C 0,0 UV-I 0,0 C 55 % 87 % 0 % 1031,6 hPa 0,0 l/m 0,0 km/h (0 Bft) 0,00 h 0,00 h 0,0 km/h (0 Bft)
14.10.2011 00:00 18,8 C 5,7 C 0,0 UV-I 0,0 C 55 % 88 % 0 % 1031,7 hPa 0,0 l/m 0,0 km/h (0 Bft) 0,00 h 0,00 h 0,0 km/h (0 Bft)
14.10.2011 01:00 18,5 C 5,2 C 0,0 UV-I 0,0 C 55 % 89 % 0 % 1031,4 hPa 0,0 l/m 0,0 km/h (0 Bft) 0,00 h 0,00 h 0,0 km/h (0 Bft)
14.10.2011 02:00 18,3 C 4,7 C 0,0 UV-I 0,0 C 55 % 90 % 0 % 1031,1 hPa 0,0 l/m 0,0 km/h (0 Bft) 0,00 h 0,07 h 0,0 km/h (0 Bft)
14.10.2011 03:00 18,1 C 4,2 C 0,0 UV-I 0,0 C 55 % 90 % 0 % 1031,5 hPa 0,0 l/m 0,0 km/h (0 Bft) 0,00 h 0,07 h 0,0 km/h (0 Bft)
14.10.2011 04:00 18,0 C 3,8 C 0,0 UV-I 0,0 C 54 % 91 % 0 % 1031,4 hPa 0,0 l/m 0,0 km/h (0 Bft) 0,00 h 0,03 h 0,0 km/h (0 Bft)
14.10.2011 05:00 17,8 C 3,4 C 0,0 UV-I 0,0 C 54 % 91 % 0 % 1031,5 hPa 0,0 l/m 0,0 km/h (0 Bft) 0,00 h 0,03 h 0,0 km/h (0 Bft)
14.10.2011 06:00 17,6 C 3,0 C 0,0 UV-I 0,0 C 54 % 91 % 0 % 1031,5 hPa 0,0 l/m 0,0 km/h (0 Bft) 0,00 h 0,03 h 0,0 km/h (0 Bft)
14.10.2011 07:00 17,5 C 2,5 C 0,0 UV-I 0,0 C 53 % 92 % 0 % 1031,5 hPa 0,0 l/m 0,0 km/h (0 Bft) 0,00 h 0,03 h 0,0 km/h (0 Bft)
14.10.2011 08:00 17,4 C 2,6 C 0,0 UV-I 0,0 C 53 % 93 % 0 % 1032,0 hPa 0,0 l/m 0,0 km/h (0 Bft) 0,00 h 0,03 h 0,0 km/h (0 Bft)
14.10.2011 09:00 17,4 C 3,6 C 0,0 UV-I 5,7 C 53 % 93 % 73 % 1032,2 hPa 0,0 l/m 0,0 km/h (0 Bft) 0,73 h 0,07 h 0,0 km/h (0 Bft)
14.10.2011 10:00 17,5 C 7,0 C 0,2 UV-I 9,7 C 54 % 94 % 100 % 1032,7 hPa 0,0 l/m 0,6 km/h (0 Bft) 1,00 h 0,00 h 1,0 km/h (0 Bft)
14.10.2011 11:00 17,8 C 10,2 C 0,4 UV-I 9,3 C 55 % 91 % 100 % 1032,8 hPa 0,0 l/m 1,1 km/h (1 Bft) 1,00 h 0,00 h 1,9 km/h (1 Bft)
14.10.2011 12:00 18,2 C 13,3 C 2,5 UV-I 7,8 C 55 % 80 % 100 % 1032,9 hPa 0,0 l/m 2,2 km/h (1 Bft) 1,00 h 0,00 h 3,1 km/h (1 Bft)
14.10.2011 13:00 19,2 C 15,3 C 3,5 UV-I 6,1 C 54 % 61 % 100 % 1032,9 hPa 0,0 l/m 3,6 km/h (1 Bft) 1,00 h 0,00 h 4,9 km/h (1 Bft)
14.10.2011 14:00 20,9 C 16,5 C 3,9 UV-I 5,9 C 51 % 50 % 100 % 1033,2 hPa 0,0 l/m 3,9 km/h (1 Bft) 1,00 h 0,00 h 4,6 km/h (1 Bft)
14.10.2011 15:00 22,1 C 16,5 C 2,7 UV-I 5,5 C 48 % 49 % 100 % 1033,2 hPa 0,0 l/m 4,9 km/h (1 Bft) 1,00 h 0,00 h 5,6 km/h (1 Bft)
14.10.2011 16:00 22,8 C 16,1 C 1,1 UV-I 4,2 C 45 % 50 % 93 % 1033,1 hPa 0,0 l/m 3,0 km/h (1 Bft) 0,97 h 0,00 h 3,3 km/h (1 Bft)
14.10.2011 17:00 22,7 C 14,6 C 0,1 UV-I 1,4 C 45 % 53 % 40 % 1032,6 hPa 0,0 l/m 1,8 km/h (1 Bft) 0,47 h 0,00 h 2,8 km/h (1 Bft)
14.10.2011 18:00 22,0 C 12,5 C 0,0 UV-I 0,0 C 46 % 57 % 0 % 1031,9 hPa 0,0 l/m 0,8 km/h (0 Bft) 0,00 h 0,00 h 1,1 km/h (0 Bft)
14.10.2011 19:00 20,9 C 10,7 C 0,0 UV-I 0,0 C 47 % 64 % 0 % 1031,8 hPa 0,0 l/m 0,0 km/h (0 Bft) 0,00 h 0,00 h 0,2 km/h (0 Bft)
14.10.2011 20:00 20,0 C 9,5 C 0,0 UV-I 0,0 C 49 % 70 % 0 % 1031,4 hPa 0,0 l/m 0,0 km/h (0 Bft) 0,00 h 0,00 h 0,0 km/h (0 Bft)
14.10.2011 21:00 19,6 C 8,5 C 0,0 UV-I 0,0 C 50 % 74 % 0 % 1031,2 hPa 0,0 l/m 0,0 km/h (0 Bft) 0,00 h 0,00 h 0,0 km/h (0 Bft)
14.10.2011 22:00 19,1 C 7,4 C 0,0 UV-I 0,0 C 50 % 78 % 0 % 1031,3 hPa 0,0 l/m 0,0 km/h (0 Bft) 0,00 h 0,00 h 0,1 km/h (0 Bft)
14.10.2011 23:00 18,8 C 6,9 C 0,0 UV-I 0,0 C 51 % 80 % 0 % 1031,4 hPa 0,0 l/m 0,3 km/h (0 Bft) 0,00 h 0,00 h 0,8 km/h (0 Bft)
15.10.2011 00:00 18,5 C 6,5 C 0,0 UV-I 0,0 C 51 % 81 % 0 % 1031,0 hPa 0,0 l/m 0,9 km/h (0 Bft) 0,00 h 0,00 h 0,8 km/h (0 Bft)
15.10.2011 01:00 18,3 C 5,7 C 0,0 UV-I 0,0 C 51 % 82 % 0 % 1030,9 hPa 0,0 l/m 0,1 km/h (0 Bft) 0,00 h 0,07 h 0,2 km/h (0 Bft)
15.10.2011 02:00 18,1 C 5,1 C 0,0 UV-I 0,0 C 50 % 84 % 0 % 1030,5 hPa 0,0 l/m 0,1 km/h (0 Bft) 0,00 h 0,00 h 0,2 km/h (0 Bft)
15.10.2011 03:00 17,9 C 5,1 C 0,0 UV-I 0,0 C 50 % 86 % 0 % 1030,0 hPa 0,0 l/m 1,4 km/h (1 Bft) 0,00 h 0,00 h 2,3 km/h (1 Bft)
15.10.2011 04:00 17,8 C 5,2 C 0,0 UV-I 0,0 C 50 % 85 % 0 % 1029,6 hPa 0,0 l/m 2,2 km/h (1 Bft) 0,00 h 0,03 h 2,5 km/h (1 Bft)
15.10.2011 05:00 17,6 C 5,1 C 0,0 UV-I 0,0 C 50 % 85 % 0 % 1029,0 hPa 0,0 l/m 1,7 km/h (1 Bft) 0,00 h 0,00 h 2,3 km/h (1 Bft)
15.10.2011 06:00 17,5 C 4,9 C 0,0 UV-I 0,0 C 50 % 85 % 0 % 1028,7 hPa 0,0 l/m 2,3 km/h (1 Bft) 0,00 h 0,00 h 4,1 km/h (1 Bft)
15.10.2011 07:00 17,2 C 4,8 C 0,0 UV-I 0,0 C 49 % 85 % 0 % 1028,3 hPa 0,0 l/m 2,8 km/h (1 Bft) 0,00 h 0,00 h 3,6 km/h (1 Bft)
15.10.2011 08:00 17,2 C 4,9 C 0,0 UV-I 0,0 C 49 % 84 % 0 % 1028,3 hPa 0,0 l/m 5,8 km/h (2 Bft) 0,00 h 0,00 h 8,8 km/h (2 Bft)
15.10.2011 09:00 17,2 C 5,9 C 0,1 UV-I 2,9 C 49 % 81 % 66 % 1028,6 hPa 0,0 l/m 8,9 km/h (2 Bft) 0,67 h 0,00 h 11,2 km/h (2 Bft)
15.10.2011 10:00 17,2 C 7,5 C 0,4 UV-I 5,1 C 49 % 77 % 100 % 1028,8 hPa 0,0 l/m 10,6 km/h (2 Bft) 1,00 h 0,00 h 12,7 km/h (3 Bft)
15.10.2011 11:00 17,3 C 9,3 C 0,7 UV-I 5,3 C 48 % 71 % 100 % 1028,5 hPa 0,0 l/m 9,6 km/h (2 Bft) 1,00 h 0,00 h 10,3 km/h (2 Bft)
15.10.2011 12:00 17,7 C 11,2 C 3,1 UV-I 5,4 C 48 % 64 % 100 % 1028,4 hPa 0,0 l/m 8,9 km/h (2 Bft) 1,00 h 0,00 h 10,2 km/h (2 Bft)
15.10.2011 13:00 18,8 C 12,8 C 4,3 UV-I 4,9 C 47 % 56 % 100 % 1028,5 hPa 0,0 l/m 10,4 km/h (2 Bft) 1,00 h 0,00 h 12,4 km/h (3 Bft)
15.10.2011 14:00 20,6 C 14,1 C 4,2 UV-I 4,8 C 44 % 52 % 100 % 1028,7 hPa 0,0 l/m 8,9 km/h (2 Bft) 1,00 h 0,00 h 9,8 km/h (2 Bft)
15.10.2011 15:00 21,8 C 15,3 C 2,9 UV-I 4,8 C 41 % 49 % 100 % 1028,2 hPa 0,0 l/m 6,4 km/h (2 Bft) 1,00 h 0,00 h 7,2 km/h (2 Bft)
15.10.2011 16:00 22,6 C 16,0 C 1,2 UV-I 4,2 C 40 % 45 % 100 % 1027,8 hPa 0,0 l/m 4,8 km/h (1 Bft) 1,00 h 0,00 h 6,1 km/h (2 Bft)
15.10.2011 17:00 22,7 C 14,6 C 0,2 UV-I 1,5 C 40 % 45 % 44 % 1027,1 hPa 0,0 l/m 4,8 km/h (1 Bft) 0,43 h 0,00 h 4,6 km/h (1 Bft)
15.10.2011 18:00 21,9 C 12,8 C 0,0 UV-I 0,0 C 41 % 49 % 0 % 1026,4 hPa 0,0 l/m 1,5 km/h (1 Bft) 0,00 h 0,00 h 1,6 km/h (1 Bft)
15.10.2011 19:00 20,8 C 10,7 C 0,0 UV-I 0,0 C 42 % 55 % 0 % 1026,3 hPa 0,0 l/m 0,6 km/h (0 Bft) 0,00 h 0,00 h 1,1 km/h (1 Bft)
15.10.2011 20:00 20,0 C 9,4 C 0,0 UV-I 0,0 C 43 % 59 % 0 % 1026,1 hPa 0,0 l/m 1,5 km/h (1 Bft) 0,00 h 0,00 h 3,0 km/h (1 Bft)
15.10.2011 21:00 19,4 C 8,9 C 0,0 UV-I 0,0 C 44 % 63 % 0 % 1025,8 hPa 0,0 l/m 2,9 km/h (1 Bft) 0,00 h 0,00 h 3,2 km/h (1 Bft)
15.10.2011 22:00 19,1 C 8,3 C 0,0 UV-I 0,0 C 44 % 67 % 0 % 1025,4 hPa 0,0 l/m 4,3 km/h (1 Bft) 0,00 h 0,00 h 5,8 km/h (2 Bft)
15.10.2011 23:00 18,7 C 7,8 C 0,0 UV-I 0,0 C 45 % 71 % 0 % 1025,2 hPa 0,0 l/m 5,3 km/h (1 Bft) 0,00 h 0,00 h 6,4 km/h (2 Bft)
16.10.2011 00:00 18,4 C 7,1 C 0,0 UV-I 0,0 C 46 % 74 % 0 % 1025,0 hPa 0,0 l/m 4,5 km/h (1 Bft) 0,00 h 0,00 h 5,8 km/h (2 Bft)
16.10.2011 01:00 18,1 C 6,5 C 0,0 UV-I 0,0 C 46 % 76 % 0 % 1024,9 hPa 0,0 l/m 2,9 km/h (1 Bft) 0,00 h 0,00 h 3,5 km/h (1 Bft)
16.10.2011 02:00 18,0 C 5,9 C 0,0 UV-I 0,0 C 47 % 77 % 0 % 1024,8 hPa 0,0 l/m 1,6 km/h (1 Bft) 0,00 h 0,00 h 2,2 km/h (1 Bft)
16.10.2011 03:00 17,8 C 5,7 C 0,0 UV-I 0,0 C 47 % 78 % 0 % 1024,5 hPa 0,0 l/m 4,2 km/h (1 Bft) 0,00 h 0,00 h 4,6 km/h (1 Bft)
16.10.2011 04:00 17,6 C 5,4 C 0,0 UV-I 0,0 C 47 % 78 % 0 % 1024,0 hPa 0,0 l/m 0,6 km/h (0 Bft) 0,00 h 0,00 h 1,0 km/h (0 Bft)
16.10.2011 05:00 17,5 C 5,3 C 0,0 UV-I 0,0 C 47 % 79 % 0 % 1023,8 hPa 0,0 l/m 2,8 km/h (1 Bft) 0,00 h 0,00 h 4,0 km/h (1 Bft)
16.10.2011 06:00 17,4 C 5,2 C 0,0 UV-I 0,0 C 47 % 79 % 0 % 1023,6 hPa 0,0 l/m 1,8 km/h (1 Bft) 0,00 h 0,00 h 2,5 km/h (1 Bft)
16.10.2011 07:00 17,2 C 4,8 C 0,0 UV-I 0,0 C 47 % 80 % 0 % 1023,6 hPa 0,0 l/m 3,3 km/h (1 Bft) 0,00 h 0,00 h 4,5 km/h (1 Bft)
16.10.2011 08:00 17,2 C 5,0 C 0,0 UV-I 0,0 C 47 % 81 % 0 % 1023,7 hPa 0,0 l/m 7,1 km/h (2 Bft) 0,00 h 0,00 h 8,9 km/h (2 Bft)
16.10.2011 09:00 17,2 C 6,0 C 0,1 UV-I 3,0 C 47 % 80 % 64 % 1025,5 hPa 0,0 l/m 6,6 km/h (2 Bft) 0,67 h 0,00 h 8,1 km/h (2 Bft)
16.10.2011 10:00 17,2 C 8,0 C 0,5 UV-I 5,6 C 46 % 76 % 100 % 1025,6 hPa 0,0 l/m 8,1 km/h (2 Bft) 1,00 h 0,00 h 8,2 km/h (2 Bft)
16.10.2011 11:00 17,3 C 10,1 C 0,7 UV-I 5,4 C 46 % 70 % 100 % 1025,5 hPa 0,0 l/m 9,3 km/h (2 Bft) 1,00 h 0,00 h 9,7 km/h (2 Bft)
16.10.2011 12:00 17,6 C 11,7 C 2,9 UV-I 5,3 C 47 % 66 % 100 % 1025,5 hPa 0,0 l/m 8,8 km/h (2 Bft) 1,00 h 0,00 h 9,7 km/h (2 Bft)
16.10.2011 13:00 18,7 C 13,1 C 3,7 UV-I 5,2 C 46 % 62 % 100 % 1025,6 hPa 0,0 l/m 8,1 km/h (2 Bft) 1,00 h 0,00 h 8,8 km/h (2 Bft)
16.10.2011 14:00 20,5 C 14,7 C 3,7 UV-I 5,3 C 43 % 58 % 100 % 1026,0 hPa 0,0 l/m 6,1 km/h (2 Bft) 1,00 h 0,00 h 7,5 km/h (2 Bft)
16.10.2011 15:00 21,7 C 15,6 C 2,5 UV-I 4,5 C 41 % 54 % 100 % 1024,7 hPa 0,0 l/m 6,7 km/h (2 Bft) 1,00 h 0,00 h 8,5 km/h (2 Bft)
16.10.2011 16:00 22,5 C 16,0 C 1,0 UV-I 4,2 C 40 % 53 % 100 % 1024,1 hPa 0,0 l/m 3,7 km/h (1 Bft) 0,97 h 0,00 h 4,3 km/h (1 Bft)
16.10.2011 17:00 22,5 C 14,9 C 0,1 UV-I 1,4 C 39 % 56 % 40 % 1023,9 hPa 0,0 l/m 2,6 km/h (1 Bft) 0,40 h 0,00 h 3,6 km/h (1 Bft)
16.10.2011 18:00 21,8 C 12,6 C 0,0 UV-I 0,0 C 41 % 64 % 0 % 1023,3 hPa 0,0 l/m 0,5 km/h (0 Bft) 0,00 h 0,00 h 0,5 km/h (0 Bft)
16.10.2011 19:00 20,7 C 9,8 C 0,0 UV-I 0,0 C 43 % 71 % 0 % 1023,1 hPa 0,0 l/m 0,0 km/h (0 Bft) 0,00 h 0,00 h 0,0 km/h (0 Bft)
16.10.2011 20:00 19,9 C 7,7 C 0,0 UV-I 0,0 C 45 % 78 % 0 % 1022,9 hPa 0,0 l/m 0,0 km/h (0 Bft) 0,00 h 0,00 h 0,0 km/h (0 Bft)
16.10.2011 21:00 19,3 C 6,5 C 0,0 UV-I 0,0 C 46 % 82 % 0 % 1022,8 hPa 0,0 l/m 0,0 km/h (0 Bft) 0,00 h 0,00 h 0,0 km/h (0 Bft)
16.10.2011 22:00 18,8 C 6,1 C 0,0 UV-I 0,0 C 47 % 85 % 0 % 1022,6 hPa 0,0 l/m 0,0 km/h (0 Bft) 0,00 h 0,03 h 0,0 km/h (0 Bft)
16.10.2011 23:00 18,4 C 5,9 C 0,0 UV-I 0,0 C 48 % 87 % 0 % 1022,4 hPa 0,0 l/m 0,0 km/h (0 Bft) 0,00 h 0,00 h 0,0 km/h (0 Bft)
Min-Datum _ 16.10.11 14.10.11 10.10.11 10.10.11 16.10.11 15.10.11 10.10.11 10.10.11 - 12.10.11 - - 10.10.11
_ Min-Zeit 09:48 07:36 00:00 00:00 16:48 17:02 00:00 07:06 - 00:52 - - 00:10
Minimum _ 17,1 C 2,4 C 0,0 UV-I 0,0 C 39 % 42 % 0 % 1013,8 hPa - 0,0 km/h (0 Bft) - - 0,0 km/h (0 Bft)
Max-Datum _ 13.10.11 10.10.11 15.10.11 14.10.11 10.10.11 10.10.11 10.10.11 14.10.11 12.10.11 11.10.11 10.10.11 10.10.11 11.10.11
_ Max-Zeit 16:58 14:10 13:44 09:56 07:56 00:30 12:58 14:26 19:34 06:02 12:36 00:00 05:56
Maximum _ 23,4 C 19,9 C 4,4 UV-I 10,8 C 69 % 95 % 100 % 1033,4 hPa 2,5 l/m 14,5 km/h
S (3 Bft)
0,03 h 0,03 h 35,4 km/h
SW (5 Bft)
Durchschnitt _ 19,6 C 11,7 C 0,4 UV-I 1,1 C 57 % 81 % 21 % 1023,2 hPa #27,0 l/m 4,0 km/h (1 Bft) #31:32 h #30:12 h 4,7 km/h (1 Bft)
© 2012 W. Hausmann